sensor_id;sensor_type;location;lat;lon;timestamp;pressure;altitude;pressure_sealevel;temperature
20490;BMP280;10403;54.092;12.122;2024-02-23T00:01:45;98015.78;;;11.84
20490;BMP280;10403;54.092;12.122;2024-02-23T00:04:12;98001.72;;;11.85
20490;BMP280;10403;54.092;12.122;2024-02-23T00:06:39;98010.34;;;11.87
20490;BMP280;10403;54.092;12.122;2024-02-23T00:09:07;98012.03;;;11.88
20490;BMP280;10403;54.092;12.122;2024-02-23T00:11:34;98019.97;;;11.86
20490;BMP280;10403;54.092;12.122;2024-02-23T00:14:06;98027.75;;;11.88
20490;BMP280;10403;54.092;12.122;2024-02-23T00:16:42;98044.28;;;11.89
20490;BMP280;10403;54.092;12.122;2024-02-23T00:19:10;98037.28;;;11.89
20490;BMP280;10403;54.092;12.122;2024-02-23T00:21:38;98038.88;;;11.92
20490;BMP280;10403;54.092;12.122;2024-02-23T00:24:06;98038.03;;;11.91
20490;BMP280;10403;54.092;12.122;2024-02-23T00:26:34;98044.94;;;11.92
20490;BMP280;10403;54.092;12.122;2024-02-23T00:29:02;98050.09;;;11.94
20490;BMP280;10403;54.092;12.122;2024-02-23T00:31:30;98049.16;;;11.95
20490;BMP280;10403;54.092;12.122;2024-02-23T00:33:57;98064.88;;;11.95
20490;BMP280;10403;54.092;12.122;2024-02-23T00:36:25;98052.59;;;11.95
20490;BMP280;10403;54.092;12.122;2024-02-23T00:38:52;98049.97;;;11.95
20490;BMP280;10403;54.092;12.122;2024-02-23T00:41:19;98033.72;;;11.90
20490;BMP280;10403;54.092;12.122;2024-02-23T00:43:46;98063.81;;;11.97
20490;BMP280;10403;54.092;12.122;2024-02-23T00:46:14;98077.75;;;11.98
20490;BMP280;10403;54.092;12.122;2024-02-23T00:48:43;98088.31;;;11.96
20490;BMP280;10403;54.092;12.122;2024-02-23T00:51:10;98113.69;;;11.96
20490;BMP280;10403;54.092;12.122;2024-02-23T00:53:37;98126.06;;;11.94
20490;BMP280;10403;54.092;12.122;2024-02-23T00:56:05;98134.09;;;11.91
20490;BMP280;10403;54.092;12.122;2024-02-23T00:58:32;98126.50;;;11.86
20490;BMP280;10403;54.092;12.122;2024-02-23T01:01:00;98121.66;;;11.80
20490;BMP280;10403;54.092;12.122;2024-02-23T01:03:28;98131.56;;;11.75
20490;BMP280;10403;54.092;12.122;2024-02-23T01:05:56;98133.75;;;11.67
20490;BMP280;10403;54.092;12.122;2024-02-23T01:08:23;98154.91;;;11.64
20490;BMP280;10403;54.092;12.122;2024-02-23T01:10:50;98158.53;;;11.61
20490;BMP280;10403;54.092;12.122;2024-02-23T01:13:17;98186.66;;;11.58
20490;BMP280;10403;54.092;12.122;2024-02-23T01:15:45;98195.63;;;11.54
20490;BMP280;10403;54.092;12.122;2024-02-23T01:18:13;98206.28;;;11.50
20490;BMP280;10403;54.092;12.122;2024-02-23T01:20:41;98204.88;;;11.45
20490;BMP280;10403;54.092;12.122;2024-02-23T01:23:08;98211.19;;;11.41
20490;BMP280;10403;54.092;12.122;2024-02-23T01:25:35;98225.56;;;11.34
20490;BMP280;10403;54.092;12.122;2024-02-23T01:28:07;98238.16;;;11.27
20490;BMP280;10403;54.092;12.122;2024-02-23T01:30:34;98223.66;;;11.22
20490;BMP280;10403;54.092;12.122;2024-02-23T01:33:02;98253.63;;;11.16
20490;BMP280;10403;54.092;12.122;2024-02-23T01:35:42;98231.19;;;11.12
20490;BMP280;10403;54.092;12.122;2024-02-23T01:38:09;98260.13;;;11.09
20490;BMP280;10403;54.092;12.122;2024-02-23T01:40:36;98251.63;;;11.05
20490;BMP280;10403;54.092;12.122;2024-02-23T01:43:05;98250.94;;;11.02
20490;BMP280;10403;54.092;12.122;2024-02-23T01:45:35;98248.75;;;10.94
20490;BMP280;10403;54.092;12.122;2024-02-23T01:48:02;98272.28;;;10.94
20490;BMP280;10403;54.092;12.122;2024-02-23T01:50:30;98267.28;;;10.90
20490;BMP280;10403;54.092;12.122;2024-02-23T01:53:01;98261.22;;;10.89
20490;BMP280;10403;54.092;12.122;2024-02-23T01:55:30;98269.97;;;10.88
20490;BMP280;10403;54.092;12.122;2024-02-23T01:58:04;98276.25;;;10.86
20490;BMP280;10403;54.092;12.122;2024-02-23T02:00:35;98294.63;;;10.84
20490;BMP280;10403;54.092;12.122;2024-02-23T02:03:04;98301.63;;;10.84
20490;BMP280;10403;54.092;12.122;2024-02-23T02:05:36;98301.00;;;10.79
20490;BMP280;10403;54.092;12.122;2024-02-23T02:08:05;98307.94;;;10.80
20490;BMP280;10403;54.092;12.122;2024-02-23T02:10:32;98286.19;;;10.79
20490;BMP280;10403;54.092;12.122;2024-02-23T02:13:06;98299.44;;;10.76
20490;BMP280;10403;54.092;12.122;2024-02-23T02:15:33;98286.44;;;10.74
20490;BMP280;10403;54.092;12.122;2024-02-23T02:18:00;98310.13;;;10.71
20490;BMP280;10403;54.092;12.122;2024-02-23T02:20:38;98298.91;;;10.69
20490;BMP280;10403;54.092;12.122;2024-02-23T02:23:13;98317.38;;;10.66
20490;BMP280;10403;54.092;12.122;2024-02-23T02:25:41;98325.38;;;10.63
20490;BMP280;10403;54.092;12.122;2024-02-23T02:28:08;98334.13;;;10.62
20490;BMP280;10403;54.092;12.122;2024-02-23T02:30:36;98335.91;;;10.62
20490;BMP280;10403;54.092;12.122;2024-02-23T02:33:03;98344.66;;;10.61
20490;BMP280;10403;54.092;12.122;2024-02-23T02:35:30;98344.81;;;10.58
20490;BMP280;10403;54.092;12.122;2024-02-23T02:38:06;98346.31;;;10.46
20490;BMP280;10403;54.092;12.122;2024-02-23T02:40:33;98371.44;;;10.49
20490;BMP280;10403;54.092;12.122;2024-02-23T02:43:01;98387.47;;;10.58
20490;BMP280;10403;54.092;12.122;2024-02-23T02:45:31;98410.09;;;10.59
20490;BMP280;10403;54.092;12.122;2024-02-23T02:48:00;98458.75;;;10.62
20490;BMP280;10403;54.092;12.122;2024-02-23T02:50:39;98483.91;;;10.64
20490;BMP280;10403;54.092;12.122;2024-02-23T02:53:07;98485.81;;;10.61
20490;BMP280;10403;54.092;12.122;2024-02-23T02:55:34;98498.22;;;10.57
20490;BMP280;10403;54.092;12.122;2024-02-23T02:58:01;98507.31;;;10.49
20490;BMP280;10403;54.092;12.122;2024-02-23T03:00:29;98500.78;;;10.40
20490;BMP280;10403;54.092;12.122;2024-02-23T03:03:07;98528.44;;;10.27
20490;BMP280;10403;54.092;12.122;2024-02-23T03:05:37;98513.63;;;10.09
20490;BMP280;10403;54.092;12.122;2024-02-23T03:08:10;98525.13;;;10.05
20490;BMP280;10403;54.092;12.122;2024-02-23T03:10:37;98531.69;;;9.94
20490;BMP280;10403;54.092;12.122;2024-02-23T03:13:04;98546.09;;;9.84
20490;BMP280;10403;54.092;12.122;2024-02-23T03:15:35;98543.78;;;9.78
20490;BMP280;10403;54.092;12.122;2024-02-23T03:18:02;98532.69;;;9.73
20490;BMP280;10403;54.092;12.122;2024-02-23T03:20:29;98549.44;;;9.69
20490;BMP280;10403;54.092;12.122;2024-02-23T03:22:56;98534.88;;;9.63
20490;BMP280;10403;54.092;12.122;2024-02-23T03:25:24;98543.13;;;9.54
20490;BMP280;10403;54.092;12.122;2024-02-23T03:27:51;98551.94;;;9.52
20490;BMP280;10403;54.092;12.122;2024-02-23T03:30:18;98572.03;;;9.50
20490;BMP280;10403;54.092;12.122;2024-02-23T03:32:45;98568.78;;;9.45
20490;BMP280;10403;54.092;12.122;2024-02-23T03:35:14;98571.56;;;9.40
20490;BMP280;10403;54.092;12.122;2024-02-23T03:37:41;98567.59;;;9.32
20490;BMP280;10403;54.092;12.122;2024-02-23T03:40:09;98590.06;;;9.36
20490;BMP280;10403;54.092;12.122;2024-02-23T03:42:37;98598.06;;;9.31
20490;BMP280;10403;54.092;12.122;2024-02-23T03:45:05;98599.00;;;9.30
20490;BMP280;10403;54.092;12.122;2024-02-23T03:47:33;98626.06;;;9.27
20490;BMP280;10403;54.092;12.122;2024-02-23T03:50:03;98619.25;;;9.23
20490;BMP280;10403;54.092;12.122;2024-02-23T03:52:31;98629.00;;;9.20
20490;BMP280;10403;54.092;12.122;2024-02-23T03:55:07;98631.72;;;9.17
20490;BMP280;10403;54.092;12.122;2024-02-23T03:57:40;98648.22;;;9.17
20490;BMP280;10403;54.092;12.122;2024-02-23T04:00:12;98653.44;;;9.17
20490;BMP280;10403;54.092;12.122;2024-02-23T04:02:39;98652.19;;;9.06
20490;BMP280;10403;54.092;12.122;2024-02-23T04:05:07;98667.50;;;9.13
20490;BMP280;10403;54.092;12.122;2024-02-23T04:07:34;98677.94;;;9.13
20490;BMP280;10403;54.092;12.122;2024-02-23T04:10:02;98695.41;;;9.11
20490;BMP280;10403;54.092;12.122;2024-02-23T04:12:31;98703.31;;;9.10
20490;BMP280;10403;54.092;12.122;2024-02-23T04:14:58;98714.72;;;9.07
20490;BMP280;10403;54.092;12.122;2024-02-23T04:17:28;98710.34;;;9.08
20490;BMP280;10403;54.092;12.122;2024-02-23T04:19:55;98714.72;;;9.07
20490;BMP280;10403;54.092;12.122;2024-02-23T04:22:37;98728.66;;;9.06
20490;BMP280;10403;54.092;12.122;2024-02-23T04:25:11;98744.19;;;9.09
20490;BMP280;10403;54.092;12.122;2024-02-23T04:27:38;98740.03;;;9.04
20490;BMP280;10403;54.092;12.122;2024-02-23T04:30:06;98747.56;;;9.11
20490;BMP280;10403;54.092;12.122;2024-02-23T04:32:59;98757.88;;;9.14
20490;BMP280;10403;54.092;12.122;2024-02-23T04:35:26;98764.06;;;9.12
20490;BMP280;10403;54.092;12.122;2024-02-23T04:37:54;98761.59;;;9.09
20490;BMP280;10403;54.092;12.122;2024-02-23T04:40:50;98769.78;;;9.00
20490;BMP280;10403;54.092;12.122;2024-02-23T04:43:17;98771.63;;;8.96
20490;BMP280;10403;54.092;12.122;2024-02-23T04:45:44;98767.06;;;9.01
20490;BMP280;10403;54.092;12.122;2024-02-23T04:48:12;98781.97;;;8.99
20490;BMP280;10403;54.092;12.122;2024-02-23T04:50:39;98788.19;;;8.95
20490;BMP280;10403;54.092;12.122;2024-02-23T04:53:12;98799.56;;;8.93
20490;BMP280;10403;54.092;12.122;2024-02-23T04:55:40;98802.19;;;8.93
20490;BMP280;10403;54.092;12.122;2024-02-23T04:58:07;98813.47;;;8.93
20490;BMP280;10403;54.092;12.122;2024-02-23T05:00:38;98811.66;;;8.95
20490;BMP280;10403;54.092;12.122;2024-02-23T05:03:06;98816.88;;;8.95
20490;BMP280;10403;54.092;12.122;2024-02-23T05:05:49;98818.69;;;8.93
20490;BMP280;10403;54.092;12.122;2024-02-23T05:08:21;98824.78;;;8.92
20490;BMP280;10403;54.092;12.122;2024-02-23T05:10:48;98834.31;;;8.93
20490;BMP280;10403;54.092;12.122;2024-02-23T05:13:16;98839.59;;;8.91
20490;BMP280;10403;54.092;12.122;2024-02-23T05:15:43;98844.09;;;8.88
20490;BMP280;10403;54.092;12.122;2024-02-23T05:18:11;98843.22;;;8.87
20490;BMP280;10403;54.092;12.122;2024-02-23T05:20:38;98861.44;;;8.89
20490;BMP280;10403;54.092;12.122;2024-02-23T05:23:05;98856.44;;;8.83
20490;BMP280;10403;54.092;12.122;2024-02-23T05:25:34;98862.84;;;8.74
20490;BMP280;10403;54.092;12.122;2024-02-23T05:28:01;98870.59;;;8.76
20490;BMP280;10403;54.092;12.122;2024-02-23T05:30:28;98871.88;;;8.64
20490;BMP280;10403;54.092;12.122;2024-02-23T05:32:58;98870.94;;;8.67
20490;BMP280;10403;54.092;12.122;2024-02-23T05:35:26;98875.69;;;8.56
20490;BMP280;10403;54.092;12.122;2024-02-23T05:37:53;98896.38;;;8.60
20490;BMP280;10403;54.092;12.122;2024-02-23T05:40:22;98887.69;;;8.60
20490;BMP280;10403;54.092;12.122;2024-02-23T05:42:59;98907.66;;;8.61
20490;BMP280;10403;54.092;12.122;2024-02-23T05:45:26;98926.66;;;8.63
20490;BMP280;10403;54.092;12.122;2024-02-23T05:47:53;98931.09;;;8.61
20490;BMP280;10403;54.092;12.122;2024-02-23T05:50:23;98943.22;;;8.62
20490;BMP280;10403;54.092;12.122;2024-02-23T05:52:51;98951.88;;;8.62
20490;BMP280;10403;54.092;12.122;2024-02-23T05:55:20;98955.41;;;8.61
20490;BMP280;10403;54.092;12.122;2024-02-23T05:57:47;98956.34;;;8.59
20490;BMP280;10403;54.092;12.122;2024-02-23T06:00:15;98957.25;;;8.58
20490;BMP280;10403;54.092;12.122;2024-02-23T06:02:45;98966.06;;;8.53
20490;BMP280;10403;54.092;12.122;2024-02-23T06:05:13;98963.69;;;8.47
20490;BMP280;10403;54.092;12.122;2024-02-23T06:07:41;98976.63;;;8.50
20490;BMP280;10403;54.092;12.122;2024-02-23T06:10:08;98966.56;;;8.40
20490;BMP280;10403;54.092;12.122;2024-02-23T06:12:36;98978.56;;;8.44
20490;BMP280;10403;54.092;12.122;2024-02-23T06:15:03;98996.97;;;8.39
20490;BMP280;10403;54.092;12.122;2024-02-23T06:17:33;98998.81;;;8.36
20490;BMP280;10403;54.092;12.122;2024-02-23T06:20:01;99002.25;;;8.36
20490;BMP280;10403;54.092;12.122;2024-02-23T06:22:31;99003.13;;;8.37
20490;BMP280;10403;54.092;12.122;2024-02-23T06:24:59;99008.31;;;8.37
20490;BMP280;10403;54.092;12.122;2024-02-23T06:27:26;99003.13;;;8.37
20490;BMP280;10403;54.092;12.122;2024-02-23T06:29:54;99026.56;;;8.37
20490;BMP280;10403;54.092;12.122;2024-02-23T06:32:22;99027.41;;;8.37
20490;BMP280;10403;54.092;12.122;2024-02-23T06:34:50;99026.72;;;8.32
20490;BMP280;10403;54.092;12.122;2024-02-23T06:37:20;99050.00;;;8.37
20490;BMP280;10403;54.092;12.122;2024-02-23T06:39:47;99051.06;;;8.31
20490;BMP280;10403;54.092;12.122;2024-02-23T06:42:23;99063.97;;;8.34
20490;BMP280;10403;54.092;12.122;2024-02-23T06:44:51;99058.91;;;8.30
20490;BMP280;10403;54.092;12.122;2024-02-23T06:47:27;99077.00;;;8.34
20490;BMP280;10403;54.092;12.122;2024-02-23T06:49:54;99082.97;;;8.38
20490;BMP280;10403;54.092;12.122;2024-02-23T06:52:21;99089.84;;;8.40
20490;BMP280;10403;54.092;12.122;2024-02-23T06:54:50;99097.50;;;8.45
20490;BMP280;10403;54.092;12.122;2024-02-23T06:57:17;99104.38;;;8.47
20490;BMP280;10403;54.092;12.122;2024-02-23T06:59:45;99111.25;;;8.50
20490;BMP280;10403;54.092;12.122;2024-02-23T07:02:12;99117.19;;;8.53
20490;BMP280;10403;54.092;12.122;2024-02-23T07:04:39;99112.88;;;8.52
20490;BMP280;10403;54.092;12.122;2024-02-23T07:07:06;99121.66;;;8.50
20490;BMP280;10403;54.092;12.122;2024-02-23T07:09:35;99133.00;;;8.49
20490;BMP280;10403;54.092;12.122;2024-02-23T07:12:05;99134.66;;;8.51
20490;BMP280;10403;54.092;12.122;2024-02-23T07:14:32;99132.88;;;8.52
20490;BMP280;10403;54.092;12.122;2024-02-23T07:17:03;99135.44;;;8.53
20490;BMP280;10403;54.092;12.122;2024-02-23T07:19:36;99134.69;;;8.50
20490;BMP280;10403;54.092;12.122;2024-02-23T07:22:03;99139.91;;;8.50
20490;BMP280;10403;54.092;12.122;2024-02-23T07:24:31;99145.00;;;8.53
20490;BMP280;10403;54.092;12.122;2024-02-23T07:27:11;99149.56;;;8.46
20490;BMP280;10403;54.092;12.122;2024-02-23T07:29:38;99153.84;;;8.49
20490;BMP280;10403;54.092;12.122;2024-02-23T07:32:06;99167.47;;;8.57
20490;BMP280;10403;54.092;12.122;2024-02-23T07:34:33;99184.78;;;8.60
20490;BMP280;10403;54.092;12.122;2024-02-23T07:37:01;99172.81;;;8.52
20490;BMP280;10403;54.092;12.122;2024-02-23T07:39:28;99181.28;;;8.61
20490;BMP280;10403;54.092;12.122;2024-02-23T07:41:58;99179.53;;;8.61
20490;BMP280;10403;54.092;12.122;2024-02-23T07:44:25;99185.47;;;8.65
20490;BMP280;10403;54.092;12.122;2024-02-23T07:46:53;99188.00;;;8.68
20490;BMP280;10403;54.092;12.122;2024-02-23T07:49:22;99175.09;;;8.63
20490;BMP280;10403;54.092;12.122;2024-02-23T07:51:49;99194.88;;;8.70
20490;BMP280;10403;54.092;12.122;2024-02-23T07:54:17;99199.22;;;8.70
20490;BMP280;10403;54.092;12.122;2024-02-23T07:56:44;99194.00;;;8.70
20490;BMP280;10403;54.092;12.122;2024-02-23T07:59:11;99212.34;;;8.67
20490;BMP280;10403;54.092;12.122;2024-02-23T08:01:38;99201.16;;;8.63
20490;BMP280;10403;54.092;12.122;2024-02-23T08:04:07;99198.66;;;8.60
20490;BMP280;10403;54.092;12.122;2024-02-23T08:06:34;99207.41;;;8.58
20490;BMP280;10403;54.092;12.122;2024-02-23T08:09:01;99213.59;;;8.53
20490;BMP280;10403;54.092;12.122;2024-02-23T08:11:29;99215.44;;;8.51
20490;BMP280;10403;54.092;12.122;2024-02-23T08:14:01;99224.88;;;8.54
20490;BMP280;10403;54.092;12.122;2024-02-23T08:16:30;99218.69;;;8.58
20490;BMP280;10403;54.092;12.122;2024-02-23T08:18:57;99231.63;;;8.61
20490;BMP280;10403;54.092;12.122;2024-02-23T08:21:25;99222.25;;;8.56
20490;BMP280;10403;54.092;12.122;2024-02-23T08:23:53;99227.41;;;8.57
20490;BMP280;10403;54.092;12.122;2024-02-23T08:26:21;99243.09;;;8.56
20490;BMP280;10403;54.092;12.122;2024-02-23T08:28:48;99249.16;;;8.56
20490;BMP280;10403;54.092;12.122;2024-02-23T08:31:15;99246.50;;;8.58
20490;BMP280;10403;54.092;12.122;2024-02-23T08:33:43;99253.41;;;8.59
20490;BMP280;10403;54.092;12.122;2024-02-23T08:36:11;99253.34;;;8.62
20490;BMP280;10403;54.092;12.122;2024-02-23T08:38:38;99273.22;;;8.64
20490;BMP280;10403;54.092;12.122;2024-02-23T08:41:05;99281.91;;;8.65
20490;BMP280;10403;54.092;12.122;2024-02-23T08:43:33;99290.50;;;8.68
20490;BMP280;10403;54.092;12.122;2024-02-23T08:46:00;99286.03;;;8.72
20490;BMP280;10403;54.092;12.122;2024-02-23T08:48:43;99297.94;;;8.80
20490;BMP280;10403;54.092;12.122;2024-02-23T08:51:10;99310.75;;;8.88
20490;BMP280;10403;54.092;12.122;2024-02-23T08:53:38;99310.59;;;8.93
20490;BMP280;10403;54.092;12.122;2024-02-23T08:56:07;99301.03;;;8.93
20490;BMP280;10403;54.092;12.122;2024-02-23T08:58:35;99319.19;;;8.96
20490;BMP280;10403;54.092;12.122;2024-02-23T09:01:02;99319.19;;;8.96
20490;BMP280;10403;54.092;12.122;2024-02-23T09:03:37;99323.59;;;8.94
20490;BMP280;10403;54.092;12.122;2024-02-23T09:06:07;99327.00;;;8.96
20490;BMP280;10403;54.092;12.122;2024-02-23T09:08:35;99331.38;;;8.96
20490;BMP280;10403;54.092;12.122;2024-02-23T09:11:03;99341.47;;;9.06
20490;BMP280;10403;54.092;12.122;2024-02-23T09:13:30;99339.56;;;9.11
20490;BMP280;10403;54.092;12.122;2024-02-23T09:15:58;99356.03;;;9.13
20490;BMP280;10403;54.092;12.122;2024-02-23T09:18:26;99366.38;;;9.16
20490;BMP280;10403;54.092;12.122;2024-02-23T09:20:54;99369.81;;;9.18
20490;BMP280;10403;54.092;12.122;2024-02-23T09:23:21;99365.41;;;9.20
20490;BMP280;10403;54.092;12.122;2024-02-23T09:25:51;99384.41;;;9.24
20490;BMP280;10403;54.092;12.122;2024-02-23T09:28:19;99378.16;;;9.30
20490;BMP280;10403;54.092;12.122;2024-02-23T09:30:46;99369.38;;;9.32
20490;BMP280;10403;54.092;12.122;2024-02-23T09:33:14;99378.06;;;9.33
20490;BMP280;10403;54.092;12.122;2024-02-23T09:35:41;99379.72;;;9.35
20490;BMP280;10403;54.092;12.122;2024-02-23T09:38:08;99385.63;;;9.40
20490;BMP280;10403;54.092;12.122;2024-02-23T09:40:36;99389.09;;;9.41
20490;BMP280;10403;54.092;12.122;2024-02-23T09:43:08;99379.59;;;9.40
20490;BMP280;10403;54.092;12.122;2024-02-23T09:45:39;99386.41;;;9.44
20490;BMP280;10403;54.092;12.122;2024-02-23T09:48:10;99382.13;;;9.41
20490;BMP280;10403;54.092;12.122;2024-02-23T09:50:41;99394.25;;;9.44
20490;BMP280;10403;54.092;12.122;2024-02-23T09:53:13;99390.03;;;9.40
20490;BMP280;10403;54.092;12.122;2024-02-23T09:55:44;99399.53;;;9.41
20490;BMP280;10403;54.092;12.122;2024-02-23T09:58:13;99402.09;;;9.42
20490;BMP280;10403;54.092;12.122;2024-02-23T10:00:43;99402.91;;;9.44
20490;BMP280;10403;54.092;12.122;2024-02-23T10:03:11;99399.66;;;9.38
20490;BMP280;10403;54.092;12.122;2024-02-23T10:05:38;99415.84;;;9.49
20490;BMP280;10403;54.092;12.122;2024-02-23T10:08:09;99422.66;;;9.53
20490;BMP280;10403;54.092;12.122;2024-02-23T10:10:37;99438.25;;;9.56
20490;BMP280;10403;54.092;12.122;2024-02-23T10:13:06;99448.63;;;9.57
20490;BMP280;10403;54.092;12.122;2024-02-23T10:15:33;99447.88;;;9.54
20490;BMP280;10403;54.092;12.122;2024-02-23T10:18:01;99436.75;;;9.47
20490;BMP280;10403;54.092;12.122;2024-02-23T10:20:28;99452.09;;;9.58
20490;BMP280;10403;54.092;12.122;2024-02-23T10:22:57;99468.56;;;9.60
20490;BMP280;10403;54.092;12.122;2024-02-23T10:25:24;99477.16;;;9.63
20490;BMP280;10403;54.092;12.122;2024-02-23T10:27:51;99472.72;;;9.67
20490;BMP280;10403;54.092;12.122;2024-02-23T10:33:58;99476.94;;;9.70
20490;BMP280;10403;54.092;12.122;2024-02-23T10:36:30;99488.09;;;9.76
20490;BMP280;10403;54.092;12.122;2024-02-23T10:39:04;99488.00;;;9.79
20490;BMP280;10403;54.092;12.122;2024-02-23T10:41:35;99490.53;;;9.81
20490;BMP280;10403;54.092;12.122;2024-02-23T10:44:28;99495.72;;;9.82
20490;BMP280;10403;54.092;12.122;2024-02-23T10:46:58;99500.81;;;9.87
20490;BMP280;10403;54.092;12.122;2024-02-23T10:49:28;99505.91;;;9.90
20490;BMP280;10403;54.092;12.122;2024-02-23T10:51:56;99510.28;;;9.89
20490;BMP280;10403;54.092;12.122;2024-02-23T10:54:24;99509.22;;;9.96
20490;BMP280;10403;54.092;12.122;2024-02-23T10:56:54;99521.31;;;9.99
20490;BMP280;10403;54.092;12.122;2024-02-23T10:59:23;99520.28;;;10.05
20490;BMP280;10403;54.092;12.122;2024-02-23T11:01:55;99507.31;;;10.01
20490;BMP280;10403;54.092;12.122;2024-02-23T11:04:32;99516.47;;;10.15
20490;BMP280;10403;54.092;12.122;2024-02-23T11:07:13;99514.56;;;10.20
20490;BMP280;10403;54.092;12.122;2024-02-23T11:09:41;99514.53;;;10.21
20490;BMP280;10403;54.092;12.122;2024-02-23T11:12:09;99514.50;;;10.23
20490;BMP280;10403;54.092;12.122;2024-02-23T11:14:38;99526.50;;;10.28
20490;BMP280;10403;54.092;12.122;2024-02-23T11:17:06;99526.44;;;10.30
20490;BMP280;10403;54.092;12.122;2024-02-23T11:19:39;99520.38;;;10.29
20490;BMP280;10403;54.092;12.122;2024-02-23T11:22:10;99521.94;;;10.35
20490;BMP280;10403;54.092;12.122;2024-02-23T11:24:49;99523.66;;;10.36
20490;BMP280;10403;54.092;12.122;2024-02-23T11:27:24;99502.78;;;10.34
20490;BMP280;10403;54.092;12.122;2024-02-23T11:30:09;99503.56;;;10.38
20490;BMP280;10403;54.092;12.122;2024-02-23T11:32:45;99499.41;;;10.31
20490;BMP280;10403;54.092;12.122;2024-02-23T11:35:16;99516.75;;;10.33
20490;BMP280;10403;54.092;12.122;2024-02-23T11:37:57;99522.94;;;10.31
20490;BMP280;10403;54.092;12.122;2024-02-23T11:40:32;99516.97;;;10.27
20490;BMP280;10403;54.092;12.122;2024-02-23T11:43:01;99516.19;;;10.24
20490;BMP280;10403;54.092;12.122;2024-02-23T11:45:30;99514.44;;;10.24
20490;BMP280;10403;54.092;12.122;2024-02-23T11:47:58;99510.97;;;10.24
20490;BMP280;10403;54.092;12.122;2024-02-23T11:50:27;99522.03;;;10.32
20490;BMP280;10403;54.092;12.122;2024-02-23T11:52:55;99527.13;;;10.36
20490;BMP280;10403;54.092;12.122;2024-02-23T11:55:23;99515.81;;;10.36
20490;BMP280;10403;54.092;12.122;2024-02-23T11:57:52;99528.03;;;10.35
20490;BMP280;10403;54.092;12.122;2024-02-23T12:00:32;99526.25;;;10.36
20490;BMP280;10403;54.092;12.122;2024-02-23T12:03:00;99526.16;;;10.39
20490;BMP280;10403;54.092;12.122;2024-02-23T12:05:33;99520.81;;;10.42
20490;BMP280;10403;54.092;12.122;2024-02-23T12:08:02;99538.22;;;10.43
20490;BMP280;10403;54.092;12.122;2024-02-23T12:10:30;99531.16;;;10.47
20490;BMP280;10403;54.092;12.122;2024-02-23T12:12:58;99525.78;;;10.50
20490;BMP280;10403;54.092;12.122;2024-02-23T12:15:26;99544.06;;;10.51
20490;BMP280;10403;54.092;12.122;2024-02-23T12:17:58;99531.16;;;10.47
20490;BMP280;10403;54.092;12.122;2024-02-23T12:20:28;99544.84;;;10.53
20490;BMP280;10403;54.092;12.122;2024-02-23T12:23:01;99534.50;;;10.50
20490;BMP280;10403;54.092;12.122;2024-02-23T12:25:28;99544.81;;;10.55
20490;BMP280;10403;54.092;12.122;2024-02-23T12:27:56;99544.75;;;10.56
20490;BMP280;10403;54.092;12.122;2024-02-23T12:30:24;99541.13;;;10.60
20490;BMP280;10403;54.092;12.122;2024-02-23T12:33:06;99546.25;;;10.63
20490;BMP280;10403;54.092;12.122;2024-02-23T12:35:39;99553.94;;;10.68
20490;BMP280;10403;54.092;12.122;2024-02-23T12:38:07;99550.38;;;10.70
20490;BMP280;10403;54.092;12.122;2024-02-23T12:40:34;99564.03;;;10.79
20490;BMP280;10403;54.092;12.122;2024-02-23T12:43:02;99558.88;;;10.77
20490;BMP280;10403;54.092;12.122;2024-02-23T12:45:32;99565.56;;;10.86
20490;BMP280;10403;54.092;12.122;2024-02-23T12:47:59;99569.13;;;10.83
20490;BMP280;10403;54.092;12.122;2024-02-23T12:50:30;99580.41;;;10.85
20490;BMP280;10403;54.092;12.122;2024-02-23T12:52:58;99556.19;;;10.79
20490;BMP280;10403;54.092;12.122;2024-02-23T12:55:38;99561.09;;;10.88
20490;BMP280;10403;54.092;12.122;2024-02-23T12:58:06;99563.72;;;10.88
20490;BMP280;10403;54.092;12.122;2024-02-23T13:00:33;99543.72;;;10.87
20490;BMP280;10403;54.092;12.122;2024-02-23T13:03:01;99562.22;;;10.81
20490;BMP280;10403;54.092;12.122;2024-02-23T13:05:28;99568.97;;;10.88
20490;BMP280;10403;54.092;12.122;2024-02-23T13:08:11;99568.91;;;10.89
20490;BMP280;10403;54.092;12.122;2024-02-23T13:10:39;99572.38;;;10.90
20490;BMP280;10403;54.092;12.122;2024-02-23T13:13:06;99570.84;;;10.84
20490;BMP280;10403;54.092;12.122;2024-02-23T13:15:34;99572.38;;;10.90
20490;BMP280;10403;54.092;12.122;2024-02-23T13:18:04;99583.56;;;10.95
20490;BMP280;10403;54.092;12.122;2024-02-23T13:20:32;99579.97;;;10.97
20490;BMP280;10403;54.092;12.122;2024-02-23T13:22:59;99582.59;;;10.97
20490;BMP280;10403;54.092;12.122;2024-02-23T13:25:28;99592.03;;;11.01
20490;BMP280;10403;54.092;12.122;2024-02-23T13:27:55;99583.44;;;10.98
20490;BMP280;10403;54.092;12.122;2024-02-23T13:30:23;99579.19;;;10.95
20490;BMP280;10403;54.092;12.122;2024-02-23T13:32:50;99595.44;;;11.05
20490;BMP280;10403;54.092;12.122;2024-02-23T13:35:18;99605.75;;;11.08
20490;BMP280;10403;54.092;12.122;2024-02-23T13:37:46;99603.94;;;11.10
20490;BMP280;10403;54.092;12.122;2024-02-23T13:40:13;99596.16;;;11.08
20490;BMP280;10403;54.092;12.122;2024-02-23T13:42:41;99588.34;;;11.07
20490;BMP280;10403;54.092;12.122;2024-02-23T13:45:09;99591.91;;;11.06
20490;BMP280;10403;54.092;12.122;2024-02-23T13:47:36;99583.13;;;11.07
20490;BMP280;10403;54.092;12.122;2024-02-23T13:50:05;99591.03;;;11.05
20490;BMP280;10403;54.092;12.122;2024-02-23T13:52:33;99591.78;;;11.09
20490;BMP280;10403;54.092;12.122;2024-02-23T13:55:00;99592.63;;;11.09
20490;BMP280;10403;54.092;12.122;2024-02-23T13:57:28;99596.06;;;11.11
20490;BMP280;10403;54.092;12.122;2024-02-23T13:59:55;99596.91;;;11.12
20490;BMP280;10403;54.092;12.122;2024-02-23T14:02:26;99588.16;;;11.13
20490;BMP280;10403;54.092;12.122;2024-02-23T14:05:02;99604.72;;;11.13
20490;BMP280;10403;54.092;12.122;2024-02-23T14:07:31;99608.28;;;11.11
20490;BMP280;10403;54.092;12.122;2024-02-23T14:09:58;99595.53;;;11.02
20490;BMP280;10403;54.092;12.122;2024-02-23T14:12:26;99617.00;;;11.11
20490;BMP280;10403;54.092;12.122;2024-02-23T14:14:55;99620.59;;;11.07
20490;BMP280;10403;54.092;12.122;2024-02-23T14:17:22;99629.41;;;11.06
20490;BMP280;10403;54.092;12.122;2024-02-23T14:19:50;99627.69;;;11.05